Time;durP1;ratioP1;P1;durP2;ratioP2;P2;SDS_P1;SDS_P2;PMS_P1;PMS_P2;Temp;Humidity;BMP_temperature;BMP_pressure;BME280_temperature;BME280_humidity;BME280_pressure;Samples;Min_cycle;Max_cycle;Signal;HPM_P1;HPM_P2
2023/05/31 00:01:35;;;;;;;7.40;4.97;;;10.20;99.90;;;;;;5047928;28;20515;-70
2023/05/31 00:04:02;;;;;;;8.20;5.35;;;10.10;99.90;;;;;;5051026;28;20342;-70
2023/05/31 00:06:28;;;;;;;9.60;5.68;;;10.10;99.90;;;;;;5046786;28;20055;-70
2023/05/31 00:08:53;;;;;;;9.10;5.85;;;10.10;99.90;;;;;;5059915;28;20032;-70
2023/05/31 00:11:19;;;;;;;10.88;5.95;;;10.10;99.90;;;;;;5048229;28;20075;-70
2023/05/31 00:13:45;;;;;;;8.13;5.38;;;10.10;99.90;;;;;;5076829;28;20521;-70
2023/05/31 00:16:11;;;;;;;10.07;5.30;;;10.10;99.90;;;;;;5045647;28;20047;-70
2023/05/31 00:18:37;;;;;;;9.02;5.47;;;10.10;99.90;;;;;;5048369;28;20093;-70
2023/05/31 00:21:03;;;;;;;9.93;5.72;;;10.10;99.90;;;;;;5057664;28;20068;-70
2023/05/31 00:23:30;;;;;;;9.27;5.93;;;10.10;99.90;;;;;;5059648;28;20040;-70
2023/05/31 00:25:55;;;;;;;10.57;6.10;;;10.10;99.90;;;;;;5082761;28;20087;-70
2023/05/31 00:28:21;;;;;;;10.63;5.78;;;10.10;99.90;;;;;;5046137;28;20067;-70
2023/05/31 00:30:47;;;;;;;10.55;6.13;;;10.10;99.90;;;;;;5036164;28;20131;-70
2023/05/31 00:33:13;;;;;;;9.25;6.13;;;10.00;99.90;;;;;;5066103;28;20047;-70
2023/05/31 00:35:39;;;;;;;8.82;5.70;;;10.00;99.90;;;;;;5048869;28;20048;-70
2023/05/31 00:38:08;;;;;;;10.95;6.72;;;9.90;99.90;;;;;;5067301;28;20513;-72
2023/05/31 00:40:34;;;;;;;9.25;5.65;;;10.00;99.90;;;;;;5057826;28;20708;-70
2023/05/31 00:43:00;;;;;;;8.25;6.00;;;9.90;99.90;;;;;;5069392;28;20051;-70
2023/05/31 00:45:26;;;;;;;10.18;6.35;;;9.80;99.90;;;;;;5048205;28;20052;-70
2023/05/31 00:47:52;;;;;;;11.07;6.03;;;9.80;99.90;;;;;;5072184;28;20373;-70
2023/05/31 00:50:18;;;;;;;11.45;6.90;;;9.80;99.90;;;;;;5083488;28;20495;-70
2023/05/31 00:52:46;;;;;;;10.13;6.78;;;9.70;99.90;;;;;;5084418;28;20454;-70
2023/05/31 00:55:13;;;;;;;10.23;6.15;;;9.70;99.90;;;;;;5086166;28;20109;-70
2023/05/31 00:57:40;;;;;;;9.43;6.53;;;9.70;99.90;;;;;;5062462;28;20039;-70
2023/05/31 01:00:07;;;;;;;10.32;6.63;;;9.70;99.90;;;;;;5079292;28;20060;-71
2023/05/31 01:02:37;;;;;;;11.50;6.95;;;9.70;99.90;;;;;;5065546;28;20052;-70
2023/05/31 01:05:05;;;;;;;9.35;6.38;;;9.70;99.90;;;;;;5065863;28;20048;-70
2023/05/31 01:07:31;;;;;;;9.48;6.07;;;9.70;99.90;;;;;;5076881;28;20044;-70
2023/05/31 01:09:57;;;;;;;7.57;6.10;;;9.70;99.90;;;;;;5061165;28;20059;-71
2023/05/31 01:12:44;;;;;;;10.68;6.93;;;9.70;99.90;;;;;;5059560;28;20511;-70
2023/05/31 01:15:22;;;;;;;11.23;7.50;;;9.70;99.90;;;;;;5076398;28;20036;-70
2023/05/31 01:18:10;;;;;;;9.93;6.80;;;9.70;99.90;;;;;;5075189;28;20217;-70
2023/05/31 01:20:38;;;;;;;12.00;7.00;;;9.60;99.90;;;;;;5075394;28;20060;-70
2023/05/31 01:23:14;;;;;;;9.77;6.97;;;9.60;99.90;;;;;;5061620;28;20036;-70
2023/05/31 01:26:12;;;;;;;11.40;7.60;;;9.60;99.90;;;;;;5073466;28;20049;-70
2023/05/31 01:28:40;;;;;;;11.80;7.70;;;9.60;99.90;;;;;;5064730;28;20139;-71
2023/05/31 01:31:08;;;;;;;8.65;6.82;;;9.60;99.90;;;;;;5082457;28;20043;-70
2023/05/31 01:33:38;;;;;;;10.55;6.65;;;9.60;99.90;;;;;;5077264;28;20876;-70
2023/05/31 01:36:04;;;;;;;10.70;6.80;;;9.60;99.90;;;;;;5075553;28;20048;-71
2023/05/31 01:38:30;;;;;;;10.00;6.78;;;9.50;99.90;;;;;;5082360;28;20048;-71
2023/05/31 01:40:57;;;;;;;10.55;7.18;;;9.50;99.90;;;;;;5078131;28;20040;-70
2023/05/31 01:43:25;;;;;;;10.18;6.75;;;9.40;99.90;;;;;;5081386;28;20059;-70
2023/05/31 01:45:53;;;;;;;9.55;6.90;;;9.40;99.90;;;;;;5078213;28;20446;-70
2023/05/31 01:48:19;;;;;;;9.98;7.15;;;9.50;99.90;;;;;;5082139;28;20051;-70
2023/05/31 01:50:45;;;;;;;10.23;7.40;;;9.40;99.90;;;;;;5061267;28;20040;-70
2023/05/31 01:53:14;;;;;;;13.55;8.20;;;9.40;99.90;;;;;;5060311;28;20040;-70
2023/05/31 01:55:42;;;;;;;10.80;7.97;;;9.30;99.90;;;;;;5066595;28;20039;-70
2023/05/31 01:58:10;;;;;;;11.70;7.32;;;9.30;99.90;;;;;;5066808;28;20044;-71
2023/05/31 02:00:37;;;;;;;9.93;7.03;;;9.30;99.90;;;;;;5076586;28;20109;-70
2023/05/31 02:03:04;;;;;;;10.73;7.90;;;9.30;99.90;;;;;;5044942;28;20051;-71
2023/05/31 02:05:30;;;;;;;11.20;7.32;;;9.30;99.90;;;;;;5056062;28;20040;-71
2023/05/31 02:07:56;;;;;;;9.10;6.88;;;9.30;99.90;;;;;;5058950;28;20043;-71
2023/05/31 02:10:22;;;;;;;8.88;6.25;;;9.30;99.90;;;;;;5065144;28;20040;-70
2023/05/31 02:12:50;;;;;;;15.00;8.10;;;9.20;99.90;;;;;;5065001;28;20090;-70
2023/05/31 02:15:19;;;;;;;8.70;7.13;;;9.20;99.90;;;;;;5058522;28;20132;-71
2023/05/31 02:17:51;;;;;;;8.75;6.78;;;9.10;99.90;;;;;;5059598;28;20044;-71
2023/05/31 02:20:17;;;;;;;9.80;7.22;;;9.00;99.90;;;;;;5047287;28;20559;-71
2023/05/31 02:22:44;;;;;;;14.05;8.52;;;9.00;99.90;;;;;;5082279;28;20044;-71
2023/05/31 02:25:11;;;;;;;10.82;7.75;;;9.00;99.90;;;;;;5054620;28;20527;-71
2023/05/31 02:27:37;;;;;;;10.90;8.48;;;9.00;99.90;;;;;;5077467;28;20083;-70
2023/05/31 02:30:05;;;;;;;12.32;9.07;;;9.00;99.90;;;;;;5081954;28;20047;-70
2023/05/31 02:32:37;;;;;;;13.45;9.52;;;9.00;99.90;;;;;;5047033;28;20040;-70
2023/05/31 02:35:10;;;;;;;12.23;8.00;;;9.00;99.90;;;;;;5042810;28;20044;-70
2023/05/31 02:37:38;;;;;;;15.45;8.95;;;9.10;99.90;;;;;;5062796;28;20072;-70
2023/05/31 02:40:08;;;;;;;14.00;9.75;;;9.10;99.90;;;;;;5043777;28;20048;-70
2023/05/31 02:42:44;;;;;;;16.48;10.65;;;9.10;99.90;;;;;;5063905;28;20052;-70
2023/05/31 02:45:11;;;;;;;14.55;9.35;;;9.10;99.90;;;;;;5031012;28;20047;-70
2023/05/31 02:47:38;;;;;;;14.50;9.38;;;9.00;99.90;;;;;;5052748;28;20881;-70
2023/05/31 02:50:09;;;;;;;13.73;8.98;;;9.10;99.90;;;;;;5058809;28;20606;-70
2023/05/31 02:52:38;;;;;;;15.23;10.25;;;9.10;99.90;;;;;;5062716;28;20462;-70
2023/05/31 02:55:05;;;;;;;19.30;10.63;;;9.10;99.90;;;;;;5075724;28;20040;-70
2023/05/31 02:57:31;;;;;;;13.75;9.75;;;9.10;99.90;;;;;;5078985;28;20411;-70
2023/05/31 03:00:10;;;;;;;14.60;9.35;;;9.10;99.90;;;;;;5078697;28;20058;-70
2023/05/31 03:02:37;;;;;;;18.48;10.93;;;9.20;99.90;;;;;;5079541;28;20047;-70
2023/05/31 03:05:04;;;;;;;13.93;10.88;;;9.10;99.90;;;;;;5078541;28;20036;-70
2023/05/31 03:07:32;;;;;;;15.52;10.40;;;9.10;99.90;;;;;;5074374;28;20036;-73
2023/05/31 03:09:58;;;;;;;15.68;11.45;;;9.10;99.90;;;;;;5047370;28;20043;-70
2023/05/31 03:12:24;;;;;;;18.65;10.85;;;9.20;99.90;;;;;;5044868;28;20048;-70
2023/05/31 03:14:50;;;;;;;15.82;10.32;;;9.20;99.90;;;;;;5030242;28;20127;-70
2023/05/31 03:17:16;;;;;;;15.27;10.13;;;9.10;99.90;;;;;;5064914;28;20151;-70
2023/05/31 03:19:42;;;;;;;16.70;9.80;;;9.10;99.90;;;;;;5039945;28;20053;-70
2023/05/31 03:22:08;;;;;;;14.98;9.48;;;9.10;99.90;;;;;;5047158;28;20059;-70
2023/05/31 03:24:34;;;;;;;17.88;10.05;;;9.10;99.90;;;;;;5068410;28;20040;-70
2023/05/31 03:27:00;;;;;;;15.82;9.82;;;9.10;99.90;;;;;;5059739;28;20187;-70
2023/05/31 03:29:26;;;;;;;16.95;10.55;;;9.10;99.90;;;;;;5031190;28;20140;-70
2023/05/31 03:31:52;;;;;;;12.95;8.82;;;9.10;99.90;;;;;;5045765;28;20495;-70
2023/05/31 03:34:18;;;;;;;15.15;9.00;;;9.10;99.90;;;;;;5071335;28;20115;-70
2023/05/31 03:36:44;;;;;;;12.98;9.35;;;9.10;99.90;;;;;;5029712;28;20460;-70
2023/05/31 03:39:10;;;;;;;15.45;10.30;;;9.10;99.90;;;;;;5062084;28;20040;-69
2023/05/31 03:41:36;;;;;;;14.70;9.13;;;9.10;99.90;;;;;;5062584;28;20130;-69
2023/05/31 03:44:02;;;;;;;14.30;9.98;;;9.10;99.90;;;;;;5029025;28;20611;-70
2023/05/31 03:46:28;;;;;;;15.60;9.85;;;9.20;99.90;;;;;;5064062;28;20408;-69
2023/05/31 03:48:53;;;;;;;16.88;10.52;;;9.10;99.90;;;;;;5063967;28;20071;-70
2023/05/31 03:51:19;;;;;;;14.88;9.27;;;9.10;99.90;;;;;;5063015;28;20060;-70
2023/05/31 03:53:45;;;;;;;14.20;9.60;;;9.10;99.90;;;;;;5063545;28;20052;-70
2023/05/31 03:56:11;;;;;;;15.23;10.75;;;9.10;99.90;;;;;;5060592;28;20036;-70
2023/05/31 03:58:36;;;;;;;13.73;9.00;;;9.10;99.90;;;;;;5026924;28;20127;-70
2023/05/31 04:01:02;;;;;;;15.10;10.68;;;9.10;99.90;;;;;;5056758;28;20052;-70
2023/05/31 04:03:29;;;;;;;15.38;8.98;;;9.10;99.90;;;;;;5055962;28;20131;-70
2023/05/31 04:05:54;;;;;;;16.67;9.95;;;9.10;99.90;;;;;;5057697;28;20079;-70
2023/05/31 04:08:20;;;;;;;12.93;8.75;;;9.20;99.90;;;;;;5095042;28;20048;-70
2023/05/31 04:10:46;;;;;;;13.65;9.27;;;9.20;99.90;;;;;;5065707;28;20767;-70
2023/05/31 04:13:12;;;;;;;18.00;10.43;;;9.20;99.90;;;;;;5069616;28;20392;-70
2023/05/31 04:15:37;;;;;;;18.30;10.23;;;9.30;99.90;;;;;;5082550;28;20409;-70
2023/05/31 04:18:03;;;;;;;16.98;10.75;;;9.20;99.90;;;;;;5075498;28;20039;-70
2023/05/31 04:20:30;;;;;;;15.68;9.85;;;9.30;99.90;;;;;;5064101;28;20066;-70
2023/05/31 04:22:55;;;;;;;17.10;10.70;;;9.30;99.90;;;;;;5086632;28;20074;-70
2023/05/31 04:25:21;;;;;;;17.98;10.75;;;9.30;99.90;;;;;;5065878;28;20051;-69
2023/05/31 04:27:47;;;;;;;16.63;10.43;;;9.40;99.90;;;;;;5066785;28;20055;-70
2023/05/31 04:30:13;;;;;;;18.75;11.82;;;9.40;99.90;;;;;;5058124;28;20129;-70
2023/05/31 04:32:40;;;;;;;21.17;11.68;;;9.40;99.90;;;;;;5065130;28;20044;-70
2023/05/31 04:35:08;;;;;;;18.15;11.68;;;9.40;99.90;;;;;;5067026;28;20040;-70
2023/05/31 04:37:35;;;;;;;17.67;11.65;;;9.40;99.90;;;;;;5048050;28;20305;-70
2023/05/31 04:40:03;;;;;;;17.77;10.98;;;9.50;99.90;;;;;;5053485;28;20042;-70
2023/05/31 04:42:29;;;;;;;16.73;11.18;;;9.50;99.90;;;;;;5050682;28;20033;-70
2023/05/31 04:45:00;;;;;;;17.77;11.85;;;9.50;99.90;;;;;;5015983;28;20642;-70
2023/05/31 04:47:32;;;;;;;20.15;12.73;;;9.60;99.90;;;;;;5050720;28;20148;-70
2023/05/31 04:49:59;;;;;;;24.63;12.45;;;9.60;99.90;;;;;;5075746;28;20471;-70
2023/05/31 04:52:30;;;;;;;21.83;13.15;;;9.60;99.90;;;;;;5075510;28;20466;-70
2023/05/31 04:54:57;;;;;;;21.52;12.25;;;9.70;99.90;;;;;;5072136;28;20056;-70
2023/05/31 04:57:24;;;;;;;20.40;12.95;;;9.80;99.90;;;;;;5078832;28;20036;-70
2023/05/31 04:59:50;;;;;;;20.60;12.50;;;9.80;99.90;;;;;;5058694;28;20079;-70
2023/05/31 05:02:18;;;;;;;19.77;13.38;;;9.90;99.90;;;;;;5080326;28;20048;-69
2023/05/31 05:04:44;;;;;;;18.77;11.93;;;10.00;99.90;;;;;;5081624;28;20488;-70
2023/05/31 05:07:10;;;;;;;20.38;13.05;;;10.00;99.90;;;;;;5062043;28;20043;-69
2023/05/31 05:09:36;;;;;;;22.70;13.02;;;10.10;99.90;;;;;;5046718;28;20462;-70
2023/05/31 05:12:02;;;;;;;20.40;13.40;;;10.20;99.90;;;;;;5078414;28;20035;-69
2023/05/31 05:14:29;;;;;;;21.42;13.60;;;10.20;99.90;;;;;;5063904;28;20076;-70
2023/05/31 05:16:55;;;;;;;22.17;13.80;;;10.30;99.90;;;;;;5049863;28;20200;-70
2023/05/31 05:19:21;;;;;;;23.10;13.63;;;10.40;99.90;;;;;;5078641;28;20044;-69
2023/05/31 05:21:47;;;;;;;25.13;13.55;;;10.50;99.90;;;;;;5065628;28;20054;-70
2023/05/31 05:24:16;;;;;;;19.73;13.68;;;10.60;99.90;;;;;;5061807;28;20079;-70
2023/05/31 05:26:42;;;;;;;21.13;14.10;;;10.70;99.90;;;;;;5099146;28;20044;-70
2023/05/31 05:29:08;;;;;;;21.45;13.40;;;10.80;99.90;;;;;;5065581;28;20071;-70
2023/05/31 05:31:33;;;;;;;22.52;13.32;;;10.90;99.90;;;;;;5078185;28;20064;-70
2023/05/31 05:33:59;;;;;;;21.10;13.02;;;11.00;99.90;;;;;;5073510;28;20091;-71
2023/05/31 05:36:27;;;;;;;20.25;12.30;;;11.10;99.90;;;;;;5080602;28;20498;-70
2023/05/31 05:38:55;;;;;;;19.73;13.23;;;11.20;99.90;;;;;;5062264;28;20133;-70
2023/05/31 05:41:21;;;;;;;19.58;13.35;;;11.30;99.90;;;;;;5043352;28;20059;-70
2023/05/31 05:43:47;;;;;;;23.52;13.07;;;11.40;99.90;;;;;;5063188;28;20056;-70
2023/05/31 05:46:12;;;;;;;19.17;12.52;;;11.50;99.90;;;;;;5081468;28;20036;-70
2023/05/31 05:48:38;;;;;;;18.33;12.73;;;11.60;99.90;;;;;;5061763;28;20040;-70
2023/05/31 05:51:04;;;;;;;19.27;12.35;;;11.70;99.90;;;;;;5077120;28;20044;-70
2023/05/31 05:53:30;;;;;;;17.38;12.20;;;11.80;99.90;;;;;;5062075;28;20044;-70
2023/05/31 05:55:55;;;;;;;19.30;11.43;;;11.80;99.90;;;;;;5055809;28;20048;-72
2023/05/31 05:58:24;;;;;;;17.55;11.32;;;11.90;99.90;;;;;;5077692;28;20044;-72
2023/05/31 06:00:50;;;;;;;18.08;11.70;;;12.00;99.90;;;;;;5056066;28;20402;-72
2023/05/31 06:03:15;;;;;;;19.33;11.82;;;12.10;99.90;;;;;;5053758;28;20053;-71
2023/05/31 06:05:44;;;;;;;20.60;12.25;;;12.20;99.90;;;;;;5029661;28;20040;-72
2023/05/31 06:08:11;;;;;;;20.38;12.02;;;12.30;99.90;;;;;;5061207;28;20048;-72
2023/05/31 06:10:37;;;;;;;17.70;12.13;;;12.40;99.90;;;;;;5057619;28;20534;-71
2023/05/31 06:13:03;;;;;;;18.60;12.57;;;12.40;99.90;;;;;;5030142;28;20051;-72
2023/05/31 06:15:29;;;;;;;18.10;11.30;;;12.50;99.90;;;;;;5027754;28;20043;-71
2023/05/31 06:17:55;;;;;;;17.35;11.52;;;12.50;99.90;;;;;;5060098;28;20040;-72
2023/05/31 06:20:21;;;;;;;18.55;12.18;;;12.50;99.90;;;;;;5041987;28;20409;-72
2023/05/31 06:22:49;;;;;;;16.98;11.07;;;12.60;99.90;;;;;;5039715;28;20044;-71
2023/05/31 06:25:17;;;;;;;17.58;11.95;;;12.70;99.90;;;;;;5052953;28;20302;-72
2023/05/31 06:27:45;;;;;;;17.40;11.00;;;12.70;99.90;;;;;;5036581;28;20040;-74
2023/05/31 06:30:12;;;;;;;16.92;11.15;;;12.80;99.90;;;;;;5040569;28;20040;-74
2023/05/31 06:32:39;;;;;;;15.52;10.95;;;12.90;99.90;;;;;;5024342;28;20109;-73
2023/05/31 06:35:06;;;;;;;14.70;10.25;;;13.00;99.90;;;;;;5045491;28;20123;-74
2023/05/31 06:37:31;;;;;;;16.60;10.25;;;13.10;99.90;;;;;;5059374;28;20207;-74
2023/05/31 06:39:57;;;;;;;17.23;10.38;;;13.10;99.90;;;;;;5046082;28;20051;-74
2023/05/31 06:42:23;;;;;;;15.27;10.15;;;13.20;99.90;;;;;;5058562;28;20245;-73
2023/05/31 06:44:50;;;;;;;16.92;9.63;;;13.30;99.90;;;;;;5061432;28;20062;-73
2023/05/31 06:47:16;;;;;;;16.90;11.25;;;13.50;99.90;;;;;;5081054;28;20425;-73
2023/05/31 06:49:42;;;;;;;14.93;9.23;;;13.60;99.90;;;;;;5076713;28;20573;-73
2023/05/31 06:52:08;;;;;;;14.65;9.45;;;13.80;99.90;;;;;;5078233;28;20036;-74
2023/05/31 06:54:37;;;;;;;15.35;10.05;;;13.80;99.90;;;;;;5075382;28;20052;-74
2023/05/31 06:57:04;;;;;;;16.52;9.60;;;13.90;99.90;;;;;;5060006;28;20396;-73
2023/05/31 06:59:30;;;;;;;14.60;9.85;;;14.10;99.90;;;;;;5047422;28;21948;-74
2023/05/31 07:01:56;;;;;;;12.32;8.00;;;14.10;99.90;;;;;;4993911;28;20126;-73
2023/05/31 07:04:22;;;;;;;13.55;8.70;;;14.20;99.90;;;;;;5005771;28;20044;-74
2023/05/31 07:06:49;;;;;;;13.65;8.52;;;14.40;99.90;;;;;;5006037;28;20135;-73
2023/05/31 07:09:15;;;;;;;14.32;8.60;;;14.50;99.90;;;;;;5038041;28;20332;-73
2023/05/31 07:11:44;;;;;;;16.85;9.15;;;14.70;99.90;;;;;;5021694;28;20068;-73
2023/05/31 07:14:10;;;;;;;10.90;8.32;;;14.80;99.90;;;;;;5026639;28;20090;-74
2023/05/31 07:16:36;;;;;;;13.70;8.95;;;14.90;99.90;;;;;;5024960;28;20048;-73
2023/05/31 07:19:02;;;;;;;11.98;8.60;;;15.00;99.90;;;;;;5005535;28;20048;-73
2023/05/31 07:21:28;;;;;;;14.25;8.90;;;15.10;99.90;;;;;;5040624;28;20079;-74
2023/05/31 07:23:55;;;;;;;12.40;8.77;;;15.20;99.90;;;;;;5026126;28;20183;-73
2023/05/31 07:26:22;;;;;;;15.05;8.75;;;15.20;99.90;;;;;;5024453;28;20135;-73
2023/05/31 07:28:48;;;;;;;12.63;8.85;;;15.30;99.90;;;;;;5038426;28;20198;-73
2023/05/31 07:31:17;;;;;;;13.57;8.60;;;15.50;99.90;;;;;;5009279;28;20132;-73
2023/05/31 07:33:43;;;;;;;13.75;8.15;;;15.70;99.90;;;;;;5040056;28;20106;-74
2023/05/31 07:36:12;;;;;;;12.10;7.53;;;15.80;99.90;;;;;;5028778;28;20041;-74
2023/05/31 07:38:37;;;;;;;14.52;8.23;;;16.00;99.90;;;;;;5009659;28;20477;-73
2023/05/31 07:41:03;;;;;;;13.32;8.30;;;16.10;99.90;;;;;;5030622;28;20155;-72
2023/05/31 07:43:30;;;;;;;13.98;8.23;;;16.30;99.90;;;;;;5030233;28;20045;-72
2023/05/31 07:45:56;;;;;;;13.68;8.20;;;16.40;99.90;;;;;;5028906;28;20099;-72
2023/05/31 07:48:23;;;;;;;12.82;7.82;;;16.50;99.90;;;;;;5043956;28;20109;-71
2023/05/31 07:50:50;;;;;;;12.27;7.97;;;16.60;99.90;;;;;;5028761;28;20046;-72
2023/05/31 07:53:16;;;;;;;14.32;7.70;;;16.70;99.90;;;;;;5046135;28;20040;-73
2023/05/31 07:55:43;;;;;;;12.38;7.50;;;16.70;99.90;;;;;;5026896;28;20405;-72
2023/05/31 07:58:11;;;;;;;9.52;6.97;;;16.80;99.90;;;;;;5047511;28;20048;-72
2023/05/31 08:00:40;;;;;;;10.02;6.93;;;16.90;99.90;;;;;;5039673;28;20149;-72
2023/05/31 08:03:06;;;;;;;10.82;7.38;;;17.00;99.90;;;;;;5050944;28;20040;-72
2023/05/31 08:05:32;;;;;;;11.63;6.72;;;17.10;99.90;;;;;;5064985;28;20729;-72
2023/05/31 08:07:59;;;;;;;13.30;7.70;;;17.10;99.90;;;;;;5063240;28;20048;-72
2023/05/31 08:10:25;;;;;;;12.50;6.43;;;17.20;99.90;;;;;;5045832;28;20093;-72
2023/05/31 08:12:54;;;;;;;14.20;7.75;;;17.30;99.90;;;;;;5047878;28;20043;-73
2023/05/31 08:15:20;;;;;;;13.75;6.65;;;17.30;99.90;;;;;;5066699;28;20040;-72
2023/05/31 08:17:47;;;;;;;11.65;6.38;;;17.40;99.90;;;;;;5047371;28;20040;-72
2023/05/31 08:20:16;;;;;;;12.18;7.05;;;17.50;99.90;;;;;;5048783;28;20040;-72
2023/05/31 08:22:44;;;;;;;12.00;6.82;;;17.60;99.90;;;;;;5044303;28;20523;-73
2023/05/31 08:25:12;;;;;;;10.85;6.75;;;17.50;99.90;;;;;;5040892;28;20041;-73
2023/05/31 08:27:40;;;;;;;10.05;5.47;;;17.60;99.90;;;;;;5063737;28;20033;-74
2023/05/31 08:30:09;;;;;;;10.35;6.07;;;17.70;99.90;;;;;;5063759;28;20900;-74
2023/05/31 08:32:35;;;;;;;12.15;5.93;;;17.80;99.90;;;;;;5063429;28;20044;-75
2023/05/31 08:35:02;;;;;;;10.45;5.50;;;17.80;99.90;;;;;;5045960;28;20522;-74
2023/05/31 08:37:27;;;;;;;12.65;5.63;;;18.00;99.90;;;;;;5048064;28;20447;-75
2023/05/31 08:39:53;;;;;;;13.40;6.60;;;18.20;99.90;;;;;;5063266;28;20048;-74
2023/05/31 08:42:31;;;;;;;10.40;5.63;;;18.30;99.90;;;;;;5048043;28;20043;-74
2023/05/31 08:44:57;;;;;;;10.77;5.60;;;18.50;99.90;;;;;;5071237;28;20055;-72
2023/05/31 08:47:31;;;;;;;10.43;6.03;;;18.60;99.90;;;;;;5047278;28;20381;-72
2023/05/31 08:50:00;;;;;;;9.65;5.55;;;18.70;99.90;;;;;;5055319;28;20375;-72
2023/05/31 08:52:27;;;;;;;9.32;5.55;;;18.70;99.90;;;;;;5060827;28;20598;-72
2023/05/31 08:54:53;;;;;;;9.95;4.65;;;18.90;99.90;;;;;;5062154;28;20534;-72
2023/05/31 08:57:20;;;;;;;10.73;4.97;;;19.00;99.90;;;;;;5060425;28;20533;-72
2023/05/31 08:59:47;;;;;;;8.88;5.20;;;19.20;99.90;;;;;;5046175;28;20049;-72
2023/05/31 09:02:15;;;;;;;7.05;4.38;;;19.30;99.90;;;;;;5045983;28;20048;-72
2023/05/31 09:04:41;;;;;;;10.23;5.00;;;19.40;99.90;;;;;;5032078;28;20122;-72
2023/05/31 09:07:07;;;;;;;8.02;4.97;;;19.50;99.90;;;;;;5034591;28;20075;-72
2023/05/31 09:09:33;;;;;;;10.43;5.22;;;19.70;99.90;;;;;;5033463;28;20040;-73
2023/05/31 09:12:00;;;;;;;8.55;4.35;;;19.80;99.90;;;;;;5061195;28;20059;-72
2023/05/31 09:14:26;;;;;;;9.00;4.55;;;19.90;99.90;;;;;;5048893;28;20071;-72
2023/05/31 09:16:52;;;;;;;7.90;4.18;;;19.90;99.90;;;;;;5028995;28;20151;-72
2023/05/31 09:19:17;;;;;;;7.65;4.20;;;19.90;99.90;;;;;;5048893;28;20119;-72
2023/05/31 09:21:45;;;;;;;7.40;4.63;;;19.90;99.90;;;;;;5060965;28;20047;-73
2023/05/31 09:24:15;;;;;;;8.13;4.40;;;19.90;99.90;;;;;;5044192;28;20039;-72
2023/05/31 09:26:51;;;;;;;7.65;4.80;;;19.90;99.90;;;;;;5046831;28;20050;-72
2023/05/31 09:29:18;;;;;;;9.23;4.90;;;20.00;99.90;;;;;;5030516;28;20044;-72
2023/05/31 09:31:45;;;;;;;9.50;4.82;;;20.10;99.90;;;;;;5062864;28;20101;-72
2023/05/31 09:34:25;;;;;;;8.38;4.28;;;20.10;99.90;;;;;;5060562;28;20075;-72
2023/05/31 09:36:52;;;;;;;6.80;4.38;;;20.10;98.00;;;;;;5060326;28;20216;-72
2023/05/31 09:39:19;;;;;;;10.10;4.72;;;20.10;99.20;;;;;;5049067;28;20040;-72
2023/05/31 09:41:50;;;;;;;8.80;5.20;;;20.20;99.90;;;;;;5046163;28;20047;-72
2023/05/31 09:44:16;;;;;;;8.63;4.45;;;20.30;99.50;;;;;;5078204;28;20055;-72
2023/05/31 09:46:45;;;;;;;8.93;4.70;;;20.40;98.50;;;;;;5059652;28;20083;-72
2023/05/31 09:49:11;;;;;;;8.70;4.80;;;20.50;98.60;;;;;;5065290;28;20109;-72
2023/05/31 09:51:39;;;;;;;8.52;4.18;;;20.50;98.20;;;;;;5048455;28;20045;-72
2023/05/31 09:54:17;;;;;;;7.65;4.82;;;20.60;99.10;;;;;;5030181;28;20050;-72
2023/05/31 09:56:43;;;;;;;9.02;5.00;;;20.70;97.20;;;;;;5060609;28;20517;-73
2023/05/31 09:59:10;;;;;;;9.27;4.38;;;20.60;98.60;;;;;;5060924;28;20043;-72
2023/05/31 10:01:36;;;;;;;8.50;4.28;;;20.50;97.70;;;;;;5063582;28;20044;-72
2023/05/31 10:04:04;;;;;;;12.40;5.15;;;20.40;97.60;;;;;;5061724;28;20208;-72
2023/05/31 10:06:34;;;;;;;10.48;4.88;;;20.40;96.90;;;;;;5065012;28;20115;-72
2023/05/31 10:09:05;;;;;;;8.70;4.70;;;20.50;97.50;;;;;;5049074;28;20089;-72
2023/05/31 10:11:36;;;;;;;7.82;4.47;;;20.50;98.10;;;;;;5032221;28;20542;-72
2023/05/31 10:14:08;;;;;;;9.20;4.75;;;20.70;97.50;;;;;;5061450;28;20091;-72
2023/05/31 10:16:49;;;;;;;7.03;4.43;;;20.80;97.80;;;;;;5045507;28;20364;-72
2023/05/31 10:19:34;;;;;;;7.63;4.03;;;20.80;96.80;;;;;;5065964;28;20113;-72
2023/05/31 10:22:03;;;;;;;8.48;4.40;;;20.80;96.20;;;;;;5081179;28;20369;-72
2023/05/31 10:24:40;;;;;;;9.77;4.45;;;20.80;97.10;;;;;;5048171;28;20084;-72
2023/05/31 10:27:27;;;;;;;6.95;4.40;;;20.90;96.60;;;;;;5049946;28;20063;-72
2023/05/31 10:29:56;;;;;;;8.15;4.90;;;20.80;95.00;;;;;;5048578;28;20048;-72
2023/05/31 10:32:32;;;;;;;9.35;4.30;;;20.90;95.90;;;;;;5063625;28;20163;-72
2023/05/31 10:34:58;;;;;;;7.15;4.68;;;21.00;96.00;;;;;;5049147;28;20048;-72
2023/05/31 10:37:25;;;;;;;10.40;5.13;;;21.10;96.10;;;;;;5046853;28;20047;-72
2023/05/31 10:40:13;;;;;;;6.88;4.55;;;21.20;94.40;;;;;;5066607;28;20048;-72
2023/05/31 10:43:17;;;;;;;8.48;4.60;;;21.30;95.50;;;;;;5048837;28;20040;-73
2023/05/31 10:45:48;;;;;;;7.28;4.47;;;21.50;94.20;;;;;;5060639;28;20048;-72
2023/05/31 10:48:33;;;;;;;7.82;4.43;;;21.40;94.60;;;;;;5061186;28;20134;-72
2023/05/31 10:51:02;;;;;;;8.65;4.88;;;21.30;92.50;;;;;;5045800;28;20119;-73
2023/05/31 10:53:35;;;;;;;8.93;4.95;;;21.20;94.20;;;;;;5047322;28;20041;-72
2023/05/31 10:56:06;;;;;;;9.93;5.13;;;21.30;93.60;;;;;;5046661;28;20055;-73
2023/05/31 10:58:36;;;;;;;11.23;5.10;;;21.30;92.80;;;;;;5053573;28;20501;-72
2023/05/31 11:01:08;;;;;;;9.38;5.28;;;21.40;95.00;;;;;;5033634;28;20143;-72
2023/05/31 11:03:49;;;;;;;11.50;4.85;;;21.50;94.70;;;;;;5025247;28;20315;-72
2023/05/31 11:06:23;;;;;;;12.40;6.18;;;21.50;94.80;;;;;;5042329;28;20048;-72
2023/05/31 11:09:16;;;;;;;12.10;5.75;;;21.30;95.60;;;;;;5044528;28;20044;-72
2023/05/31 11:11:44;;;;;;;10.25;5.40;;;21.10;96.80;;;;;;5009769;28;20061;-72
2023/05/31 11:14:28;;;;;;;13.70;5.88;;;21.20;97.70;;;;;;5045310;28;20033;-73
2023/05/31 11:16:53;;;;;;;11.77;6.30;;;21.30;97.90;;;;;;5044629;28;20059;-71
2023/05/31 11:19:25;;;;;;;12.10;6.00;;;21.30;97.50;;;;;;5044707;28;20040;-71
2023/05/31 11:21:53;;;;;;;12.27;6.88;;;21.30;97.50;;;;;;5027050;28;20275;-72
2023/05/31 11:24:44;;;;;;;11.00;6.43;;;21.20;96.90;;;;;;5042605;28;20041;-72
2023/05/31 11:27:13;;;;;;;10.10;5.90;;;21.10;97.10;;;;;;5027397;28;20056;-72
2023/05/31 11:29:46;;;;;;;12.32;6.57;;;21.00;97.80;;;;;;5027205;28;20048;-72
2023/05/31 11:32:14;;;;;;;11.35;6.47;;;21.00;98.40;;;;;;5044818;28;20040;-72
2023/05/31 11:35:08;;;;;;;10.45;6.13;;;21.20;98.80;;;;;;5024650;28;20463;-72
2023/05/31 11:37:37;;;;;;;10.60;6.40;;;21.50;98.40;;;;;;5043804;28;20037;-72
2023/05/31 11:40:14;;;;;;;11.90;6.50;;;21.60;97.10;;;;;;5010576;28;20059;-72
2023/05/31 11:42:44;;;;;;;11.25;6.28;;;21.60;95.60;;;;;;5061322;28;20512;-72
2023/05/31 11:45:13;;;;;;;14.13;6.15;;;21.60;96.60;;;;;;5021212;28;20437;-72
2023/05/31 11:47:48;;;;;;;10.90;6.97;;;21.80;96.80;;;;;;5033767;28;20040;-72
2023/05/31 11:50:16;;;;;;;9.50;6.85;;;21.80;94.70;;;;;;5038375;28;20045;-72
2023/05/31 11:52:42;;;;;;;10.63;6.28;;;21.80;94.50;;;;;;5043768;28;20056;-73
2023/05/31 11:55:09;;;;;;;8.95;6.18;;;21.80;94.70;;;;;;5025647;28;20047;-71
2023/05/31 11:57:46;;;;;;;9.70;6.20;;;21.80;94.30;;;;;;5012347;28;20106;-72
2023/05/31 12:00:15;;;;;;;11.07;7.32;;;21.70;94.80;;;;;;5034595;28;20068;-72
2023/05/31 12:02:44;;;;;;;10.20;7.07;;;21.60;92.70;;;;;;5044737;28;20095;-72
2023/05/31 12:05:15;;;;;;;10.00;7.05;;;21.40;93.60;;;;;;5027197;28;20132;-72
2023/05/31 12:07:45;;;;;;;11.68;6.45;;;21.40;94.10;;;;;;5028461;28;20037;-72
2023/05/31 12:10:15;;;;;;;11.15;6.38;;;21.50;93.90;;;;;;5043007;28;20043;-73
2023/05/31 12:12:41;;;;;;;;;;;21.50;92.50;;;;;;5050630;28;20036;-72
2023/05/31 12:15:12;;;;;;;11.38;7.65;;;21.40;93.30;;;;;;5027002;28;20275;-72
2023/05/31 12:17:38;;;;;;;10.20;7.10;;;21.50;92.70;;;;;;5050433;28;20045;-73
2023/05/31 12:20:08;;;;;;;12.25;8.00;;;21.50;93.60;;;;;;5026488;28;20132;-73
2023/05/31 12:22:34;;;;;;;10.55;7.13;;;21.50;93.00;;;;;;5036253;28;20036;-72
2023/05/31 12:25:01;;;;;;;12.18;7.82;;;21.50;93.40;;;;;;5059486;28;20115;-72
2023/05/31 12:27:29;;;;;;;9.02;7.50;;;21.50;92.70;;;;;;5033705;28;20790;-72
2023/05/31 12:30:00;;;;;;;10.65;6.97;;;21.40;93.20;;;;;;5044024;28;20041;-72
2023/05/31 12:32:29;;;;;;;9.70;6.22;;;21.50;92.80;;;;;;5032198;28;20048;-72
2023/05/31 12:35:12;;;;;;;12.23;6.72;;;21.50;93.50;;;;;;5029241;28;20114;-72
2023/05/31 12:37:39;;;;;;;10.68;6.60;;;21.50;93.60;;;;;;5015063;28;20047;-73
2023/05/31 12:40:08;;;;;;;9.55;6.68;;;21.60;92.70;;;;;;5027505;28;20044;-72
2023/05/31 12:42:35;;;;;;;;;;;21.60;91.90;;;;;;5053269;28;20044;-72
2023/05/31 12:45:06;;;;;;;9.40;5.97;;;21.50;92.80;;;;;;5045245;28;19971;-72
2023/05/31 12:47:33;;;;;;;10.27;6.15;;;21.40;93.20;;;;;;5033982;28;20412;-72